Red Gum, Louisiana
Current Conditions -  °F | °C
As of 10:35 AM on Friday 31 Oct 2014 (Local Time) from KHEZ Reporting Station
Clear Clear  
Wind Chill: 63°   Ceiling: Unl
Heat Index: 63°   Visibility: 10mi
Dew Point: 46°   Wind: 10mph
Humidity: 55%   Direction: 340°NNW
Pressure: 30.12"   Gusts: 16mph
Location:  31.828°N, 91.4836°W
Report Text: KHEZ 311535Z AUTO 34009G14KT 10SM CLR 17/08 A3012 RMK AO1
Loading
Personal Weather Stations






























Interactive Weather Map
Tropical Storm Tracking
New forecast layout! Learn more

10-Day Weather Forecast

Advertisements
Track Severe Weather on mobile